Date,TemperatureHighF,TemperatureAvgF,TemperatureLowF,DewpointHighF,DewpointAvgF,DewpointLowF,HumidityHigh,HumidityAvg,HumidityLow,PressureMaxIn,PressureMinIn,WindSpeedMaxMPH,WindSpeedAvgMPH,GustSpeedMaxMPH,PrecipitationSumIn
2013-9-1,83.8,76.4,71.3,55.2,49.2,43.1,54,39,31,29.82,29.77,9,3,14,0.00
2013-9-2,81.9,73.2,66.9,58.3,55.9,53.3,70,55,42,29.84,29.78,12,2,14,0.00
2013-9-3,81.7,72.7,64.5,57.9,55.2,51.1,75,55,39,29.88,29.80,11,2,0,0.00
2013-9-4,84.8,74.9,67.8,56.8,52.6,49.8,59,46,33,29.91,29.83,11,2,13,0.00
2013-9-5,82.2,73.2,66.3,54.0,49.5,41.8,58,44,30,29.90,29.83,13,3,13,0.00
2013-9-6,87.5,76.5,69.3,52.2,47.2,43.0,51,36,24,29.89,29.78,9,3,12,0.00
2013-9-7,88.6,78.6,71.2,48.9,45.5,41.1,39,32,24,29.82,29.75,15,3,17,0.00
2013-9-8,92.8,81.7,74.6,44.7,38.1,31.2,34,21,16,29.78,29.68,12,4,14,0.00
2013-9-9,93.8,81.5,73.7,44.3,38.1,31.4,30,22,12,29.70,29.60,12,3,16,0.00
2013-9-10,86.5,78.2,72.5,47.3,41.7,33.3,38,28,22,29.76,29.62,13,3,14,0.00
2013-9-11,82.8,73.5,67.4,51.7,47.1,41.6,56,40,31,29.86,29.76,10,2,0,0.00
2013-9-12,84.8,73.4,66.9,50.8,48.3,45.4,54,42,28,29.88,29.80,13,3,14,0.00
2013-9-13,86.0,75.3,68.6,53.5,50.5,47.4,53,42,30,29.81,29.65,13,2,14,0.00
2013-9-14,88.0,77.0,70.2,53.4,51.4,49.9,51,42,29,29.70,29.62,10,2,14,0.00
2013-9-15,84.0,75.5,67.6,52.3,47.5,36.3,52,38,25,29.74,29.64,13,3,14,0.00
2013-9-16,82.9,74.1,66.8,49.0,43.7,33.0,49,34,23,29.78,29.68,11,3,13,0.00
2013-9-17,73.1,65.3,58.7,47.8,43.4,36.1,56,46,29,29.78,29.69,12,3,13,0.00
2013-9-18,78.5,66.5,58.7,40.4,34.9,25.9,46,32,20,29.82,29.75,13,3,13,0.00
2013-9-19,84.1,72.2,61.8,41.9,34.1,24.1,38,26,16,29.82,29.73,9,3,0,0.00
2013-9-20,79.2,70.3,60.0,46.0,35.2,24.2,57,30,17,29.74,29.68,12,3,12,0.00
2013-9-21,61.8,53.9,45.9,54.4,46.0,39.2,96,76,51,29.86,29.71,14,3,23,0.31
2013-9-22,65.6,54.7,44.7,50.0,43.2,35.7,86,66,52,29.96,29.84,10,3,14,0.00
2013-9-23,75.3,62.3,52.1,50.8,47.5,40.6,80,60,40,29.99,29.91,10,2,0,0.00
2013-9-24,73.0,63.4,50.6,50.0,46.5,41.3,79,55,38,29.93,29.80,9,3,13,0.00
2013-9-25,63.8,51.7,44.1,45.9,39.8,31.4,94,66,38,29.82,29.75,11,2,15,0.00
2013-9-26,64.9,52.7,44.6,39.3,30.4,23.3,72,44,24,29.96,29.74,15,5,29,0.02
2013-9-27,68.8,57.9,49.0,35.3,28.5,24.4,44,33,23,30.07,29.95,12,3,18,0.00
2013-9-28,75.4,63.8,54.5,35.5,30.7,25.9,42,30,18,30.08,29.99,9,3,12,0.00
2013-9-29,75.8,66.3,60.4,43.1,34.4,28.3,49,32,21,30.06,29.99,11,3,13,0.00
2013-9-30,72.8,62.3,55.3,48.0,42.8,37.8,61,49,31,30.00,29.90,8,2,0,0.00